createdAt,value
2023-03-02T00:01:09.415Z,99.90
2023-03-02T00:03:41.694Z,99.90
2023-03-02T00:06:09.654Z,99.90
2023-03-02T00:08:38.193Z,99.90
2023-03-02T00:11:05.461Z,99.90
2023-03-02T00:13:34.475Z,99.90
2023-03-02T00:16:01.341Z,99.90
2023-03-02T00:18:28.312Z,99.90
2023-03-02T00:20:55.114Z,99.90
2023-03-02T00:23:21.969Z,99.90
2023-03-02T00:25:48.975Z,99.90
2023-03-02T00:28:15.736Z,99.90
2023-03-02T00:30:42.552Z,99.90
2023-03-02T00:33:09.489Z,99.90
2023-03-02T00:35:42.333Z,99.90
2023-03-02T00:38:09.451Z,99.90
2023-03-02T00:40:36.939Z,99.90
2023-03-02T00:43:04.566Z,99.90
2023-03-02T00:45:31.501Z,99.90
2023-03-02T00:47:58.309Z,99.90
2023-03-02T00:50:25.224Z,99.90
2023-03-02T00:52:52.126Z,99.90
2023-03-02T00:55:19.013Z,99.90
2023-03-02T00:57:54.928Z,99.90
2023-03-02T01:00:23.276Z,99.90
2023-03-02T01:02:51.324Z,99.90
2023-03-02T01:05:18.491Z,99.90
2023-03-02T01:07:45.341Z,99.90
2023-03-02T01:10:13.192Z,99.90
2023-03-02T01:12:40.369Z,99.90
2023-03-02T01:15:08.774Z,99.90
2023-03-02T01:17:35.855Z,99.90
2023-03-02T01:20:02.824Z,99.90
2023-03-02T01:22:29.644Z,99.90
2023-03-02T01:24:56.426Z,99.90
2023-03-02T01:27:23.249Z,99.90
2023-03-02T01:29:50.765Z,99.90
2023-03-02T01:32:17.563Z,99.90
2023-03-02T01:34:44.441Z,99.90
2023-03-02T01:37:11.276Z,99.90
2023-03-02T01:39:38.165Z,99.90
2023-03-02T01:42:05.122Z,99.90
2023-03-02T01:44:38.335Z,99.90
2023-03-02T01:47:26.824Z,99.90
2023-03-02T01:50:02.612Z,99.90
2023-03-02T01:52:33.389Z,99.90
2023-03-02T01:55:04.976Z,99.90
2023-03-02T01:57:43.802Z,99.90
2023-03-02T02:00:16.471Z,99.90
2023-03-02T02:02:43.434Z,99.90
2023-03-02T02:05:13.708Z,99.90
2023-03-02T02:07:41.077Z,99.90
2023-03-02T02:10:08.703Z,99.90
2023-03-02T02:12:35.558Z,99.90
2023-03-02T02:15:06.344Z,99.90
2023-03-02T02:17:34.025Z,99.90
2023-03-02T02:20:09.529Z,99.90
2023-03-02T02:22:41.022Z,99.90
2023-03-02T02:25:19.210Z,99.90
2023-03-02T02:27:46.898Z,99.90
2023-03-02T02:30:15.439Z,99.90
2023-03-02T02:32:44.350Z,99.90
2023-03-02T02:35:21.507Z,99.90
2023-03-02T02:37:54.920Z,99.90
2023-03-02T02:40:41.607Z,99.90
2023-03-02T02:43:12.878Z,99.90
2023-03-02T02:45:40.196Z,99.90
2023-03-02T02:48:15.297Z,99.90
2023-03-02T02:50:43.884Z,99.90
2023-03-02T02:53:16.173Z,99.90
2023-03-02T02:55:43.673Z,99.90
2023-03-02T02:58:34.042Z,99.90
2023-03-02T03:01:01.611Z,99.90
2023-03-02T03:03:32.819Z,99.90
2023-03-02T03:06:03.649Z,99.90
2023-03-02T03:09:00.872Z,99.90
2023-03-02T03:11:38.165Z,99.90
2023-03-02T03:14:10.427Z,99.90
2023-03-02T03:16:40.671Z,99.90
2023-03-02T03:19:31.563Z,99.90
2023-03-02T03:22:00.870Z,99.90
2023-03-02T03:24:33.114Z,99.90
2023-03-02T03:27:01.993Z,99.90
2023-03-02T03:29:30.158Z,99.90
2023-03-02T03:31:58.458Z,99.90
2023-03-02T03:34:26.127Z,99.90
2023-03-02T03:36:53.196Z,99.90
2023-03-02T03:39:20.065Z,99.90
2023-03-02T03:41:46.895Z,99.90
2023-03-02T03:44:14.744Z,99.90
2023-03-02T03:46:41.560Z,99.90
2023-03-02T03:49:08.344Z,99.90
2023-03-02T03:51:35.669Z,99.90
2023-03-02T03:54:08.326Z,99.90
2023-03-02T03:56:41.959Z,99.90
2023-03-02T03:59:15.990Z,99.90
2023-03-02T04:01:49.495Z,99.90
2023-03-02T04:04:20.346Z,99.90
2023-03-02T04:06:47.294Z,99.90
2023-03-02T04:09:15.512Z,99.90
2023-03-02T04:11:43.953Z,99.90
2023-03-02T04:14:11.645Z,99.90
2023-03-02T04:16:39.753Z,99.90
2023-03-02T04:19:09.626Z,99.90
2023-03-02T04:21:41.968Z,99.90
2023-03-02T04:24:10.195Z,99.90
2023-03-02T04:26:38.507Z,99.90
2023-03-02T04:29:06.194Z,99.90
2023-03-02T04:31:33.009Z,99.90
2023-03-02T04:34:00.246Z,99.90
2023-03-02T04:36:27.403Z,99.90
2023-03-02T04:38:54.493Z,99.90
2023-03-02T04:41:22.362Z,99.90
2023-03-02T04:43:49.268Z,99.90
2023-03-02T04:46:22.556Z,99.90
2023-03-02T04:48:49.656Z,99.90
2023-03-02T04:51:26.120Z,99.90
2023-03-02T04:53:54.703Z,99.90
2023-03-02T04:56:21.881Z,99.90
2023-03-02T04:58:48.922Z,99.90
2023-03-02T05:01:18.113Z,99.90
2023-03-02T05:03:45.974Z,99.90
2023-03-02T05:06:13.109Z,99.90
2023-03-02T05:08:40.662Z,99.90
2023-03-02T05:11:08.251Z,99.90
2023-03-02T05:13:35.790Z,99.90
2023-03-02T05:16:03.071Z,99.90
2023-03-02T05:18:30.075Z,99.90
2023-03-02T05:20:57.321Z,99.90
2023-03-02T05:23:25.502Z,99.90
2023-03-02T05:25:57.267Z,99.90
2023-03-02T05:28:25.858Z,99.90
2023-03-02T05:30:52.886Z,99.90
2023-03-02T05:33:19.943Z,99.90
2023-03-02T05:35:47.357Z,99.90
2023-03-02T05:38:14.805Z,99.90
2023-03-02T05:40:42.630Z,99.90
2023-03-02T05:43:11.630Z,99.90
2023-03-02T05:45:39.281Z,99.90
2023-03-02T05:48:07.102Z,99.90
2023-03-02T05:50:34.308Z,99.90
2023-03-02T05:53:02.541Z,99.90
2023-03-02T05:55:30.241Z,99.90
2023-03-02T05:57:57.505Z,99.90
2023-03-02T06:00:24.561Z,99.90
2023-03-02T06:02:51.397Z,99.90
2023-03-02T06:05:19.782Z,99.90
2023-03-02T06:07:46.828Z,99.90
2023-03-02T06:10:14.527Z,99.90
2023-03-02T06:12:41.486Z,99.90
2023-03-02T06:15:09.069Z,99.90
2023-03-02T06:17:36.182Z,99.90
2023-03-02T06:20:10.188Z,99.90
2023-03-02T06:22:42.614Z,99.90
2023-03-02T06:25:12.076Z,99.90
2023-03-02T06:27:40.978Z,99.90
2023-03-02T06:30:09.737Z,99.90
2023-03-02T06:32:36.616Z,99.90
2023-03-02T06:35:05.284Z,99.90
2023-03-02T06:37:32.973Z,99.90
2023-03-02T06:40:00.446Z,99.90
2023-03-02T06:42:28.264Z,99.90
2023-03-02T06:44:55.437Z,99.90
2023-03-02T06:47:23.535Z,99.90
2023-03-02T06:49:50.280Z,99.90
2023-03-02T06:52:17.301Z,99.90
2023-03-02T06:54:44.174Z,99.90
2023-03-02T06:57:11.198Z,99.90
2023-03-02T06:59:38.016Z,99.90
2023-03-02T07:02:04.854Z,99.90
2023-03-02T07:04:32.525Z,99.90
2023-03-02T07:06:59.298Z,99.90
2023-03-02T07:09:26.235Z,99.90
2023-03-02T07:11:53.023Z,99.90
2023-03-02T07:14:19.792Z,99.90
2023-03-02T07:16:46.540Z,99.90
2023-03-02T07:19:14.028Z,99.90
2023-03-02T07:21:41.206Z,99.90
2023-03-02T07:24:08.423Z,99.90
2023-03-02T07:26:35.217Z,99.90
2023-03-02T07:29:02.220Z,99.90
2023-03-02T07:31:29.005Z,99.90
2023-03-02T07:33:55.844Z,99.90
2023-03-02T07:36:22.661Z,99.90
2023-03-02T07:38:49.416Z,99.90
2023-03-02T07:41:16.985Z,99.90
2023-03-02T07:43:44.342Z,99.90
2023-03-02T07:46:11.314Z,99.90
2023-03-02T07:48:38.091Z,99.90
2023-03-02T07:51:06.306Z,99.90
2023-03-02T07:56:02.263Z,99.90
2023-03-02T07:58:29.087Z,93.90
2023-03-02T08:00:56.127Z,90.20
2023-03-02T08:03:22.893Z,80.20
2023-03-02T08:05:49.708Z,74.70
2023-03-02T08:08:16.537Z,71.20
2023-03-02T08:10:43.331Z,69.20
2023-03-02T08:13:10.146Z,63.60
2023-03-02T08:15:36.885Z,62.50
2023-03-02T08:18:03.878Z,58.70
2023-03-02T08:20:30.680Z,58.60
2023-03-02T08:22:57.561Z,99.90
2023-03-02T08:25:24.382Z,99.90
2023-03-02T08:30:18.657Z,84.70
2023-03-02T08:32:45.646Z,96.40
2023-03-02T08:35:13.090Z,94.30
2023-03-02T08:37:39.960Z,92.70
2023-03-02T08:40:07.502Z,89.00
2023-03-02T08:42:34.272Z,86.90
2023-03-02T08:45:01.042Z,78.70
2023-03-02T08:47:28.326Z,70.30
2023-03-02T08:49:55.115Z,66.80
2023-03-02T08:52:21.915Z,58.70
2023-03-02T08:54:48.682Z,54.90
2023-03-02T08:57:15.549Z,51.40
2023-03-02T08:59:42.311Z,51.30
2023-03-02T09:02:12.163Z,50.10
2023-03-02T09:04:39.241Z,51.20
2023-03-02T09:07:06.071Z,48.70
2023-03-02T09:09:32.957Z,39.90
2023-03-02T09:12:00.831Z,38.50
2023-03-02T09:14:27.668Z,36.40
2023-03-02T09:16:54.560Z,33.90
2023-03-02T09:19:21.730Z,31.70
2023-03-02T09:21:48.629Z,31.80
2023-03-02T09:24:15.370Z,32.00
2023-03-02T09:26:42.379Z,30.80
2023-03-02T09:29:09.430Z,32.40
2023-03-02T09:31:37.283Z,26.30
2023-03-02T09:34:05.168Z,28.10
2023-03-02T09:36:32.829Z,24.80
2023-03-02T09:38:59.738Z,25.80
2023-03-02T09:41:44.948Z,25.10
2023-03-02T09:44:42.365Z,23.80
2023-03-02T09:47:36.082Z,23.60
2023-03-02T09:50:26.635Z,20.50
2023-03-02T09:53:40.476Z,15.30
2023-03-02T09:56:15.152Z,15.40
2023-03-02T09:58:47.484Z,12.30
2023-03-02T10:01:21.352Z,59.90
2023-03-02T10:04:09.587Z,8.70
2023-03-02T10:06:36.451Z,8.40
2023-03-02T10:09:03.301Z,4.40
2023-03-02T10:11:40.198Z,3.30
2023-03-02T10:14:19.614Z,3.90
2023-03-02T10:16:52.577Z,5.50
2023-03-02T10:19:32.459Z,7.10
2023-03-02T10:22:27.084Z,5.20
2023-03-02T10:25:21.234Z,5.80
2023-03-02T10:27:56.816Z,1.50
2023-03-02T10:30:33.288Z,1.00
2023-03-02T10:33:12.113Z,4.40
2023-03-02T10:35:44.781Z,1.50
2023-03-02T10:38:18.269Z,1.00
2023-03-02T10:40:50.595Z,21.30
2023-03-02T10:43:37.049Z,2.10
2023-03-02T10:46:09.793Z,4.50
2023-03-02T10:48:58.518Z,1.00
2023-03-02T10:51:35.290Z,1.00
2023-03-02T10:54:13.905Z,1.00
2023-03-02T10:56:49.216Z,1.00
2023-03-02T10:59:37.738Z,1.00
2023-03-02T11:02:23.504Z,1.00
2023-03-02T11:04:57.776Z,1.00
2023-03-02T11:07:27.942Z,1.00
2023-03-02T11:10:17.332Z,1.00
2023-03-02T11:12:47.594Z,13.60
2023-03-02T11:15:28.166Z,1.00
2023-03-02T11:18:20.695Z,1.00
2023-03-02T11:20:51.014Z,1.00
2023-03-02T11:23:36.299Z,1.00
2023-03-02T11:26:13.434Z,2.80
2023-03-02T11:28:59.818Z,6.30
2023-03-02T11:31:36.992Z,10.30
2023-03-02T11:34:17.361Z,10.10
2023-03-02T11:36:55.099Z,12.90
2023-03-02T11:39:29.204Z,11.60
2023-03-02T11:41:56.096Z,15.20
2023-03-02T11:44:24.842Z,11.70
2023-03-02T11:46:59.354Z,13.10
2023-03-02T11:49:36.756Z,13.40
2023-03-02T11:52:03.815Z,12.70
2023-03-02T11:54:42.801Z,8.80
2023-03-02T11:57:39.567Z,12.70
2023-03-02T12:00:15.516Z,11.20
2023-03-02T12:02:42.295Z,12.60
2023-03-02T12:05:25.185Z,8.10
2023-03-02T12:08:18.515Z,10.40
2023-03-02T12:10:59.537Z,9.10
2023-03-02T12:13:32.325Z,9.80
2023-03-02T12:15:59.811Z,12.20
2023-03-02T12:18:51.008Z,12.30
2023-03-02T12:21:21.960Z,13.20
2023-03-02T12:23:51.861Z,12.60
2023-03-02T12:26:21.768Z,12.00
2023-03-02T12:29:02.709Z,10.80
2023-03-02T12:31:56.346Z,13.80
2023-03-02T12:34:42.762Z,14.60
2023-03-02T12:37:23.659Z,12.00
2023-03-02T12:40:03.234Z,16.10
2023-03-02T12:42:30.228Z,17.50
2023-03-02T12:45:37.659Z,17.10
2023-03-02T12:48:38.104Z,21.40
2023-03-02T12:51:12.923Z,22.20
2023-03-02T12:53:41.170Z,23.40
2023-03-02T12:56:09.601Z,21.00
2023-03-02T12:58:36.544Z,21.80
2023-03-02T13:01:05.031Z,19.90
2023-03-02T13:03:32.432Z,21.80
2023-03-02T13:06:14.362Z,21.50
2023-03-02T13:08:44.921Z,25.30
2023-03-02T13:11:12.230Z,25.60
2023-03-02T13:13:44.449Z,25.90
2023-03-02T13:16:23.547Z,28.70
2023-03-02T13:18:55.420Z,26.50
2023-03-02T13:21:28.040Z,29.30
2023-03-02T13:23:54.822Z,27.90
2023-03-02T13:26:54.929Z,23.60
2023-03-02T13:29:25.307Z,27.80
2023-03-02T13:31:52.112Z,26.40
2023-03-02T13:34:37.203Z,23.60
2023-03-02T13:37:20.263Z,22.60
2023-03-02T13:39:56.212Z,25.20
2023-03-02T13:42:38.615Z,24.50
2023-03-02T13:45:34.737Z,24.90
2023-03-02T13:48:15.401Z,23.70
2023-03-02T13:50:56.440Z,26.60
2023-03-02T13:53:24.409Z,28.30
2023-03-02T13:55:53.686Z,27.50
2023-03-02T13:58:22.758Z,29.20
2023-03-02T14:00:51.122Z,30.10
2023-03-02T14:03:29.782Z,31.10
2023-03-02T14:05:58.535Z,33.20
2023-03-02T14:08:25.754Z,33.50
2023-03-02T14:10:57.333Z,34.90
2023-03-02T14:13:30.272Z,34.20
2023-03-02T14:15:57.550Z,32.10
2023-03-02T14:18:26.729Z,34.00
2023-03-02T14:20:53.752Z,34.10
2023-03-02T14:23:20.703Z,34.60
2023-03-02T14:25:47.624Z,34.90
2023-03-02T14:28:22.703Z,34.80
2023-03-02T14:30:53.420Z,40.50
2023-03-02T14:33:21.523Z,41.70
2023-03-02T14:35:50.878Z,41.00
2023-03-02T14:38:18.093Z,43.30
2023-03-02T14:40:44.946Z,42.00
2023-03-02T14:43:11.761Z,41.10
2023-03-02T14:45:38.569Z,43.20
2023-03-02T14:48:05.430Z,43.20
2023-03-02T14:50:38.357Z,60.30
2023-03-02T14:53:09.072Z,87.10
2023-03-02T14:55:37.024Z,99.90
2023-03-02T14:58:12.862Z,73.90
2023-03-02T15:00:39.782Z,99.90
2023-03-02T15:03:06.580Z,99.90
2023-03-02T15:05:33.365Z,1.00
2023-03-02T15:08:00.149Z,1.00
2023-03-02T15:10:27.076Z,1.00
2023-03-02T15:12:53.839Z,1.00
2023-03-02T15:15:20.699Z,1.00
2023-03-02T15:17:47.476Z,1.00
2023-03-02T15:20:16.168Z,3.20
2023-03-02T15:22:43.422Z,8.20
2023-03-02T15:25:10.756Z,15.80
2023-03-02T15:27:37.522Z,17.50
2023-03-02T15:30:05.444Z,28.20
2023-03-02T15:32:32.239Z,30.30
2023-03-02T15:34:59.087Z,56.10
2023-03-02T15:37:26.057Z,56.40
2023-03-02T15:39:54.984Z,57.00
2023-03-02T15:42:22.668Z,56.50
2023-03-02T15:44:49.434Z,57.00
2023-03-02T15:47:16.618Z,57.00
2023-03-02T15:49:43.388Z,57.30
2023-03-02T15:52:10.457Z,57.80
2023-03-02T15:54:37.206Z,57.80
2023-03-02T15:57:04.121Z,58.00
2023-03-02T15:59:31.788Z,57.70
2023-03-02T16:01:59.806Z,57.70
2023-03-02T16:04:27.134Z,58.30
2023-03-02T16:07:00.281Z,58.70
2023-03-02T16:09:28.986Z,58.80
2023-03-02T16:11:56.340Z,59.40
2023-03-02T16:14:23.235Z,59.90
2023-03-02T16:16:50.299Z,60.70
2023-03-02T16:19:19.270Z,61.40
2023-03-02T16:21:47.400Z,61.80
2023-03-02T16:24:16.136Z,63.00
2023-03-02T16:26:43.523Z,63.20
2023-03-02T16:29:12.036Z,63.30
2023-03-02T16:31:39.344Z,63.90
2023-03-02T16:34:08.902Z,64.60
2023-03-02T16:36:37.718Z,65.30
2023-03-02T16:39:05.443Z,65.30
2023-03-02T16:41:32.270Z,65.90
2023-03-02T16:43:59.742Z,66.30
2023-03-02T16:46:30.001Z,66.30
2023-03-02T16:48:57.591Z,66.80
2023-03-02T16:51:24.931Z,67.40
2023-03-02T16:53:51.816Z,67.50
2023-03-02T16:56:18.604Z,67.50
2023-03-02T16:58:45.432Z,68.60
2023-03-02T17:01:16.477Z,68.70
2023-03-02T17:03:44.187Z,69.60
2023-03-02T17:06:13.527Z,70.40
2023-03-02T17:08:40.644Z,70.20
2023-03-02T17:11:08.355Z,70.60
2023-03-02T17:13:35.581Z,71.80
2023-03-02T17:16:02.878Z,71.60
2023-03-02T17:18:31.096Z,72.40
2023-03-02T17:20:59.828Z,72.50
2023-03-02T17:23:27.728Z,73.30
2023-03-02T17:25:56.361Z,73.40
2023-03-02T17:28:24.213Z,73.30
2023-03-02T17:30:51.878Z,73.90
2023-03-02T17:33:18.758Z,74.20
2023-03-02T17:35:46.282Z,74.00
2023-03-02T17:38:14.511Z,74.10
2023-03-02T17:40:42.014Z,74.50
2023-03-02T17:43:08.898Z,76.00
2023-03-02T17:45:35.833Z,75.40
2023-03-02T17:48:02.982Z,75.70
2023-03-02T17:50:33.219Z,76.60
2023-03-02T17:53:00.145Z,77.70
2023-03-02T17:55:30.379Z,78.30
2023-03-02T17:57:57.188Z,78.40
2023-03-02T18:00:24.479Z,78.40
2023-03-02T18:02:52.104Z,78.30
2023-03-02T18:05:19.244Z,79.10
2023-03-02T18:07:46.029Z,80.70
2023-03-02T18:10:13.308Z,80.60
2023-03-02T18:12:40.581Z,81.50
2023-03-02T18:15:09.849Z,82.30
2023-03-02T18:17:36.581Z,80.40
2023-03-02T18:20:03.926Z,80.70
2023-03-02T18:22:30.780Z,81.70
2023-03-02T18:24:57.695Z,81.40
2023-03-02T18:27:24.469Z,82.40
2023-03-02T18:29:51.263Z,83.00
2023-03-02T18:32:18.128Z,82.00
2023-03-02T18:34:44.950Z,83.00
2023-03-02T18:37:11.944Z,84.50
2023-03-02T18:39:39.046Z,86.40
2023-03-02T18:42:06.402Z,88.10
2023-03-02T18:44:33.748Z,88.90
2023-03-02T18:47:00.891Z,89.30
2023-03-02T18:49:28.653Z,91.00
2023-03-02T18:51:56.728Z,91.40
2023-03-02T18:54:23.994Z,91.90
2023-03-02T18:56:51.218Z,92.40
2023-03-02T18:59:18.680Z,92.50
2023-03-02T19:01:46.246Z,92.00
2023-03-02T19:04:14.376Z,92.90
2023-03-02T19:06:42.320Z,93.00
2023-03-02T19:09:09.633Z,93.30
2023-03-02T19:11:36.501Z,92.60
2023-03-02T19:14:03.703Z,92.40
2023-03-02T19:16:30.628Z,92.80
2023-03-02T19:18:57.463Z,93.00
2023-03-02T19:21:24.342Z,93.40
2023-03-02T19:23:51.177Z,93.80
2023-03-02T19:26:18.089Z,93.30
2023-03-02T19:28:44.908Z,93.50
2023-03-02T19:31:12.588Z,94.20
2023-03-02T19:33:40.385Z,93.50
2023-03-02T19:36:08.178Z,93.80
2023-03-02T19:38:37.859Z,94.40
2023-03-02T19:41:04.970Z,94.60
2023-03-02T19:43:31.884Z,95.40
2023-03-02T19:45:58.840Z,95.60
2023-03-02T19:48:25.697Z,95.20
2023-03-02T19:50:53.095Z,95.80
2023-03-02T19:53:19.892Z,96.70
2023-03-02T19:55:46.735Z,97.80
2023-03-02T19:58:17.499Z,98.50
2023-03-02T20:00:45.629Z,99.90
2023-03-02T20:03:13.204Z,99.90
2023-03-02T20:05:40.309Z,99.90
2023-03-02T20:08:08.019Z,99.90
2023-03-02T20:10:41.589Z,99.90
2023-03-02T20:13:08.996Z,99.90
2023-03-02T20:15:38.964Z,99.90
2023-03-02T20:18:08.216Z,99.90
2023-03-02T20:20:35.470Z,99.90
2023-03-02T20:23:03.942Z,99.90
2023-03-02T20:25:31.314Z,99.90
2023-03-02T20:27:58.621Z,99.90
2023-03-02T20:30:34.840Z,99.90
2023-03-02T20:33:02.591Z,99.90
2023-03-02T20:35:31.722Z,99.90
2023-03-02T20:38:01.523Z,99.90
2023-03-02T20:40:29.458Z,99.90
2023-03-02T20:42:56.340Z,99.90
2023-03-02T20:45:23.474Z,99.90
2023-03-02T20:47:50.771Z,99.90
2023-03-02T20:50:22.784Z,99.90
2023-03-02T20:52:49.728Z,99.90
2023-03-02T20:55:16.607Z,99.90
2023-03-02T20:57:43.576Z,99.90
2023-03-02T21:00:20.681Z,99.90
2023-03-02T21:02:48.789Z,99.90
2023-03-02T21:05:18.186Z,99.90
2023-03-02T21:07:45.562Z,99.90
2023-03-02T21:10:17.050Z,99.90
2023-03-02T21:12:44.511Z,99.90
2023-03-02T21:15:12.870Z,99.90
2023-03-02T21:17:39.986Z,99.90
2023-03-02T21:20:07.934Z,99.90
2023-03-02T21:22:34.797Z,99.90
2023-03-02T21:25:01.720Z,99.90
2023-03-02T21:27:29.589Z,99.90
2023-03-02T21:29:56.567Z,99.90
2023-03-02T21:32:23.394Z,99.90
2023-03-02T21:34:56.188Z,99.90
2023-03-02T21:37:23.220Z,99.90
2023-03-02T21:39:50.074Z,99.90
2023-03-02T21:42:17.066Z,99.90
2023-03-02T21:44:43.902Z,99.90
2023-03-02T21:47:10.746Z,99.90
2023-03-02T21:49:37.486Z,99.90
2023-03-02T21:52:04.406Z,99.90
2023-03-02T21:54:31.138Z,99.90
2023-03-02T21:56:57.894Z,99.90
2023-03-02T21:59:24.667Z,99.90
2023-03-02T22:01:51.560Z,99.90
2023-03-02T22:04:18.387Z,99.90
2023-03-02T22:06:45.162Z,99.90
2023-03-02T22:09:12.018Z,99.90
2023-03-02T22:11:39.091Z,99.90
2023-03-02T22:14:20.320Z,99.90
2023-03-02T22:16:48.235Z,99.90
2023-03-02T22:19:25.777Z,99.90
2023-03-02T22:21:54.774Z,99.90
2023-03-02T22:24:23.732Z,99.90
2023-03-02T22:27:16.416Z,99.90
2023-03-02T22:29:46.109Z,99.90
2023-03-02T22:32:23.238Z,99.90
2023-03-02T22:34:58.926Z,99.90
2023-03-02T22:37:32.924Z,99.90
2023-03-02T22:40:21.186Z,99.90
2023-03-02T22:42:47.913Z,99.90
2023-03-02T22:45:17.591Z,99.90
2023-03-02T22:47:49.126Z,99.90
2023-03-02T22:50:21.214Z,99.90
2023-03-02T22:52:48.002Z,99.90
2023-03-02T22:55:44.538Z,99.90
2023-03-02T22:58:57.996Z,99.90
2023-03-02T23:01:29.551Z,99.90
2023-03-02T23:04:08.644Z,99.90
2023-03-02T23:06:47.238Z,99.90
2023-03-02T23:09:21.692Z,99.90
2023-03-02T23:11:49.744Z,99.90
2023-03-02T23:14:28.589Z,99.90
2023-03-02T23:16:59.954Z,99.90
2023-03-02T23:19:29.277Z,99.90
2023-03-02T23:21:56.724Z,99.90
2023-03-02T23:24:23.860Z,99.90
2023-03-02T23:26:52.355Z,99.90
2023-03-02T23:29:20.285Z,99.90
2023-03-02T23:31:47.631Z,99.90
2023-03-02T23:34:14.560Z,99.90
2023-03-02T23:36:41.641Z,99.90
2023-03-02T23:39:09.646Z,99.90
2023-03-02T23:41:38.584Z,99.90
2023-03-02T23:44:06.598Z,99.90
2023-03-02T23:46:33.562Z,99.90
2023-03-02T23:49:00.686Z,99.90
2023-03-02T23:51:27.604Z,99.90
2023-03-02T23:53:55.027Z,99.90
2023-03-02T23:56:22.241Z,99.90
2023-03-02T23:58:49.439Z,99.90
